createdAt,value
2023-03-31T00:01:14.203Z,99495.69
2023-03-31T00:03:40.641Z,99493.75
2023-03-31T00:06:07.348Z,99494.88
2023-03-31T00:08:34.491Z,99498.41
2023-03-31T00:11:02.814Z,99485.31
2023-03-31T00:13:30.350Z,99483.25
2023-03-31T00:16:08.356Z,99481.31
2023-03-31T00:18:35.390Z,99482.09
2023-03-31T00:21:16.354Z,99479.16
2023-03-31T00:23:42.674Z,99478.88
2023-03-31T00:26:08.967Z,99466.13
2023-03-31T00:28:35.257Z,99465.84
2023-03-31T00:31:03.280Z,99462.97
2023-03-31T00:33:30.123Z,99465.06
2023-03-31T00:35:56.580Z,99458.66
2023-03-31T00:38:22.983Z,99455.94
2023-03-31T00:40:50.705Z,99450.47
2023-03-31T00:43:33.573Z,99451.56
2023-03-31T00:46:11.345Z,99452.03
2023-03-31T00:48:37.734Z,99448.97
2023-03-31T00:51:07.053Z,99438.47
2023-03-31T00:53:36.110Z,99433.53
2023-03-31T00:56:09.034Z,99427.94
2023-03-31T00:58:35.604Z,99419.34
2023-03-31T01:01:03.120Z,99422.13
2023-03-31T01:03:32.040Z,99415.28
2023-03-31T01:06:02.649Z,99421.09
2023-03-31T01:08:29.486Z,99404.06
2023-03-31T01:11:00.112Z,99410.78
2023-03-31T01:13:26.849Z,99406.56
2023-03-31T01:15:53.754Z,99405.56
2023-03-31T01:18:21.324Z,99395.28
2023-03-31T01:21:31.108Z,99389.44
2023-03-31T01:24:19.072Z,99385.59
2023-03-31T01:27:26.017Z,99380.94
2023-03-31T01:30:11.129Z,99376.31
2023-03-31T01:33:10.947Z,99367.63
2023-03-31T01:35:59.408Z,99366.66
2023-03-31T01:38:40.922Z,99363.63
2023-03-31T01:41:20.007Z,99360.06
2023-03-31T01:44:07.804Z,99359.28
2023-03-31T01:46:46.704Z,99356.69
2023-03-31T01:49:48.401Z,99354.16
2023-03-31T01:52:25.209Z,99347.63
2023-03-31T01:54:54.178Z,99348.84
2023-03-31T01:57:37.386Z,99342.34
2023-03-31T02:00:06.949Z,99334.59
2023-03-31T02:02:39.905Z,99331.44
2023-03-31T02:05:11.064Z,99326.34
2023-03-31T02:07:43.035Z,99324.63
2023-03-31T02:10:12.919Z,99320.81
2023-03-31T02:12:42.189Z,99314.59
2023-03-31T02:15:13.416Z,99309.63
2023-03-31T02:17:43.298Z,99312.81
2023-03-31T02:20:12.601Z,99307.06
2023-03-31T02:22:43.049Z,99297.56
2023-03-31T02:25:14.371Z,99289.97
2023-03-31T02:27:44.787Z,99296.81
2023-03-31T02:30:11.969Z,99286.63
2023-03-31T02:32:41.140Z,99284.69
2023-03-31T02:35:11.938Z,99272.75
2023-03-31T02:37:40.087Z,99271.16
2023-03-31T02:40:11.964Z,99270.88
2023-03-31T02:42:41.846Z,99268.53
2023-03-31T02:45:36.907Z,99261.03
2023-03-31T02:48:05.505Z,99260.88
2023-03-31T02:50:42.090Z,99251.25
2023-03-31T02:53:36.183Z,99242.81
2023-03-31T02:56:23.821Z,99242.06
2023-03-31T02:58:53.076Z,99243.03
2023-03-31T03:01:48.869Z,99232.84
2023-03-31T03:04:47.976Z,99230.94
2023-03-31T03:07:22.688Z,99220.63
2023-03-31T03:10:01.102Z,99222.72
2023-03-31T03:12:44.221Z,99215.88
2023-03-31T03:15:18.581Z,99214.09
2023-03-31T03:17:46.998Z,99198.66
2023-03-31T03:20:14.959Z,99199.63
2023-03-31T03:22:41.810Z,99191.78
2023-03-31T03:25:11.893Z,99196.56
2023-03-31T03:27:39.008Z,99195.28
2023-03-31T03:30:08.632Z,99193.72
2023-03-31T03:32:35.150Z,99188.13
2023-03-31T03:35:02.261Z,99185.25
2023-03-31T03:37:30.211Z,99177.75
2023-03-31T03:39:56.625Z,99176.16
2023-03-31T03:42:22.941Z,99160.06
2023-03-31T03:44:49.502Z,99142.53
2023-03-31T03:47:16.051Z,99142.72
2023-03-31T03:49:42.476Z,99128.72
2023-03-31T03:52:08.792Z,99121.53
2023-03-31T03:54:35.131Z,99125.84
2023-03-31T03:57:01.553Z,99120.75
2023-03-31T03:59:27.941Z,99115.97
2023-03-31T04:01:54.261Z,99104.84
2023-03-31T04:04:20.654Z,99101.16
2023-03-31T04:06:46.950Z,99094.31
2023-03-31T04:09:13.265Z,99091.94
2023-03-31T04:11:39.563Z,99093.22
2023-03-31T04:14:05.874Z,99079.69
2023-03-31T04:16:32.215Z,99078.56
2023-03-31T04:18:58.609Z,99070.75
2023-03-31T04:21:25.400Z,99061.03
2023-03-31T04:23:54.430Z,99060.72
2023-03-31T04:26:20.805Z,99062.63
2023-03-31T04:28:47.119Z,99056.25
2023-03-31T04:31:14.522Z,99058.97
2023-03-31T04:33:41.142Z,99051.00
2023-03-31T04:36:08.729Z,99043.34
2023-03-31T04:38:35.337Z,99044.16
2023-03-31T04:41:01.669Z,99044.00
2023-03-31T04:43:27.999Z,99042.41
2023-03-31T04:45:54.351Z,99034.47
2023-03-31T04:48:20.814Z,99029.22
2023-03-31T04:50:47.154Z,99026.50
2023-03-31T04:53:13.509Z,99019.94
2023-03-31T04:55:39.811Z,99015.97
2023-03-31T04:58:06.130Z,99007.56
2023-03-31T05:00:32.463Z,99000.56
2023-03-31T05:02:59.738Z,98996.56
2023-03-31T05:05:26.113Z,98986.38
2023-03-31T05:07:52.400Z,98992.72
2023-03-31T05:10:18.731Z,98991.31
2023-03-31T05:12:45.060Z,98998.63
2023-03-31T05:15:11.565Z,98990.66
2023-03-31T05:17:38.261Z,98983.03
2023-03-31T05:20:05.544Z,98977.78
2023-03-31T05:22:35.327Z,98972.22
2023-03-31T05:25:01.774Z,98956.41
2023-03-31T05:27:28.110Z,98955.34
2023-03-31T05:29:54.441Z,98951.63
2023-03-31T05:32:20.765Z,98951.81
2023-03-31T05:34:47.216Z,98951.47
2023-03-31T05:37:13.516Z,98947.63
2023-03-31T05:39:39.829Z,98936.34
2023-03-31T05:42:06.213Z,98940.16
2023-03-31T05:44:32.548Z,98935.22
2023-03-31T05:46:58.861Z,98926.63
2023-03-31T05:49:25.219Z,98933.00
2023-03-31T05:51:51.509Z,98934.41
2023-03-31T05:54:17.815Z,98929.47
2023-03-31T05:56:44.180Z,98922.16
2023-03-31T05:59:10.481Z,98915.13
2023-03-31T06:01:36.987Z,98911.59
2023-03-31T06:04:03.381Z,98905.25
2023-03-31T06:06:29.850Z,98897.91
2023-03-31T06:08:56.420Z,98890.75
2023-03-31T06:11:22.791Z,98885.28
2023-03-31T06:13:49.677Z,98883.41
2023-03-31T06:16:17.427Z,98888.63
2023-03-31T06:18:44.342Z,98894.28
2023-03-31T06:21:13.631Z,98886.78
2023-03-31T06:23:40.092Z,98874.47
2023-03-31T06:26:08.180Z,98872.72
2023-03-31T06:28:35.759Z,98867.34
2023-03-31T06:31:06.937Z,98860.00
2023-03-31T06:33:34.549Z,98862.72
2023-03-31T06:36:01.607Z,98858.88
2023-03-31T06:38:28.369Z,98845.16
2023-03-31T06:40:54.698Z,98841.00
2023-03-31T06:43:21.052Z,98837.47
2023-03-31T06:45:48.379Z,98823.78
2023-03-31T06:48:14.738Z,98824.59
2023-03-31T06:50:41.657Z,98812.56
2023-03-31T06:53:09.356Z,98805.63
2023-03-31T06:55:36.702Z,98808.16
2023-03-31T06:58:04.188Z,98811.25
2023-03-31T07:00:31.294Z,98797.22
2023-03-31T07:02:58.039Z,98803.31
2023-03-31T07:05:24.753Z,98805.03
2023-03-31T07:07:51.066Z,98792.88
2023-03-31T07:10:17.356Z,98787.84
2023-03-31T07:12:43.689Z,98780.06
2023-03-31T07:15:10.365Z,98780.28
2023-03-31T07:17:36.675Z,98778.56
2023-03-31T07:20:06.606Z,98767.34
2023-03-31T07:22:32.929Z,98764.66
2023-03-31T07:24:59.237Z,98760.31
2023-03-31T07:27:26.386Z,98765.47
2023-03-31T07:29:52.825Z,98757.56
2023-03-31T07:32:19.245Z,98757.44
2023-03-31T07:34:45.576Z,98746.59
2023-03-31T07:37:11.859Z,98748.69
2023-03-31T07:39:38.182Z,98743.63
2023-03-31T07:42:04.498Z,98742.53
2023-03-31T07:44:33.762Z,98739.53
2023-03-31T07:47:00.350Z,98740.06
2023-03-31T07:49:26.660Z,98728.53
2023-03-31T07:51:52.976Z,98724.16
2023-03-31T07:54:19.264Z,98724.81
2023-03-31T07:56:45.632Z,98721.13
2023-03-31T07:59:12.171Z,98714.53
2023-03-31T08:01:38.553Z,98715.78
2023-03-31T08:04:05.032Z,98711.25
2023-03-31T08:06:31.417Z,98708.06
2023-03-31T08:08:58.527Z,98716.22
2023-03-31T08:11:25.941Z,98711.25
2023-03-31T08:13:52.693Z,98700.63
2023-03-31T08:16:19.280Z,98702.44
2023-03-31T08:18:45.646Z,98700.41
2023-03-31T08:21:12.036Z,98695.41
2023-03-31T08:23:38.362Z,98702.22
2023-03-31T08:26:14.490Z,98700.19
2023-03-31T08:28:42.861Z,98700.41
2023-03-31T08:31:09.936Z,98698.38
2023-03-31T08:33:37.295Z,98703.69
2023-03-31T08:36:05.249Z,98695.41
2023-03-31T08:38:31.769Z,98692.16
2023-03-31T08:41:07.044Z,98696.78
2023-03-31T08:43:40.840Z,98694.97
2023-03-31T08:46:12.299Z,98693.91
2023-03-31T08:48:42.248Z,98695.09
2023-03-31T08:51:16.342Z,98695.19
2023-03-31T08:53:51.186Z,98697.00
2023-03-31T08:56:19.042Z,98692.69
2023-03-31T08:58:48.777Z,98697.19
2023-03-31T09:01:55.962Z,98688.38
2023-03-31T09:04:48.091Z,98688.13
2023-03-31T09:07:30.546Z,98686.28
2023-03-31T09:10:41.910Z,98686.97
2023-03-31T09:13:26.643Z,98686.09
2023-03-31T09:16:16.131Z,98681.72
2023-03-31T09:18:43.189Z,98676.19
2023-03-31T09:21:18.577Z,98674.91
2023-03-31T09:23:55.049Z,98671.88
2023-03-31T09:26:41.312Z,98663.16
2023-03-31T09:29:15.608Z,98665.50
2023-03-31T09:31:43.357Z,98668.22
2023-03-31T09:34:24.397Z,98660.13
2023-03-31T09:36:50.701Z,98664.59
2023-03-31T09:39:17.021Z,98663.25
2023-03-31T09:41:45.996Z,98665.56
2023-03-31T09:44:25.771Z,98665.59
2023-03-31T09:46:53.715Z,98660.38
2023-03-31T09:49:27.865Z,98660.53
2023-03-31T09:52:20.239Z,98655.78
2023-03-31T09:54:49.712Z,98657.00
2023-03-31T09:57:34.381Z,98665.47
2023-03-31T10:00:27.208Z,98661.78
2023-03-31T10:03:01.216Z,98664.00
2023-03-31T10:05:37.464Z,98651.38
2023-03-31T10:08:32.531Z,98647.97
2023-03-31T10:11:01.798Z,98653.88
2023-03-31T10:13:35.549Z,98653.28
2023-03-31T10:16:06.904Z,98653.19
2023-03-31T10:18:36.557Z,98648.19
2023-03-31T10:21:05.821Z,98657.00
2023-03-31T10:23:34.283Z,98657.94
2023-03-31T10:26:02.292Z,98656.69
2023-03-31T10:28:33.172Z,98665.13
2023-03-31T10:31:00.859Z,98656.59
2023-03-31T10:33:30.833Z,98651.47
2023-03-31T10:36:07.074Z,98645.41
2023-03-31T10:38:39.266Z,98636.00
2023-03-31T10:41:06.294Z,98625.34
2023-03-31T10:43:40.858Z,98627.88
2023-03-31T10:46:07.805Z,98620.50
2023-03-31T10:48:41.653Z,98612.88
2023-03-31T10:51:14.213Z,98617.00
2023-03-31T10:53:43.562Z,98612.03
2023-03-31T10:56:17.373Z,98614.75
2023-03-31T10:58:58.342Z,98609.47
2023-03-31T11:01:49.501Z,98607.63
2023-03-31T11:04:36.818Z,98603.56
2023-03-31T11:07:08.797Z,98600.53
2023-03-31T11:09:49.329Z,98599.75
2023-03-31T11:12:24.611Z,98599.03
2023-03-31T11:15:24.904Z,98587.38
2023-03-31T11:18:13.953Z,98585.91
2023-03-31T11:21:03.377Z,98587.34
2023-03-31T11:23:42.701Z,98582.38
2023-03-31T11:26:31.010Z,98583.66
2023-03-31T11:29:26.427Z,98571.19
2023-03-31T11:32:16.387Z,98568.66
2023-03-31T11:35:04.193Z,98567.38
2023-03-31T11:37:56.757Z,98559.25
2023-03-31T11:40:35.264Z,98562.06
2023-03-31T11:43:26.529Z,98554.56
2023-03-31T11:46:01.566Z,98548.75
2023-03-31T11:48:33.290Z,98550.38
2023-03-31T11:51:02.218Z,98548.00
2023-03-31T11:53:36.441Z,98541.50
2023-03-31T11:56:04.142Z,98538.63
2023-03-31T11:58:37.800Z,98542.16
2023-03-31T12:01:15.136Z,98543.38
2023-03-31T12:03:54.427Z,98535.69
2023-03-31T12:06:24.145Z,98538.16
2023-03-31T12:09:03.039Z,98530.31
2023-03-31T12:11:35.771Z,98528.13
2023-03-31T12:14:16.892Z,98524.78
2023-03-31T12:16:49.558Z,98509.16
2023-03-31T12:19:21.637Z,98512.25
2023-03-31T12:22:02.390Z,98515.38
2023-03-31T12:24:30.128Z,98516.78
2023-03-31T12:27:03.428Z,98510.22
2023-03-31T12:30:19.327Z,98508.50
2023-03-31T12:32:53.268Z,98502.31
2023-03-31T12:35:26.293Z,98489.56
2023-03-31T12:38:26.355Z,98490.78
2023-03-31T12:40:58.690Z,98486.22
2023-03-31T12:44:16.261Z,98491.78
2023-03-31T12:47:03.894Z,98496.59
2023-03-31T12:50:08.921Z,98481.91
2023-03-31T12:52:35.187Z,98483.22
2023-03-31T12:55:31.865Z,98487.56
2023-03-31T12:58:23.212Z,98485.22
2023-03-31T13:01:14.298Z,98481.25
2023-03-31T13:03:49.831Z,98480.84
2023-03-31T13:06:46.919Z,98480.91
2023-03-31T13:09:13.184Z,98473.72
2023-03-31T13:11:44.362Z,98463.59
2023-03-31T13:14:21.901Z,98467.81
2023-03-31T13:16:52.119Z,98466.84
2023-03-31T13:19:30.998Z,98465.59
2023-03-31T13:22:02.841Z,98472.28
2023-03-31T13:24:31.240Z,98472.59
2023-03-31T13:26:59.569Z,98461.81
2023-03-31T13:29:39.610Z,98477.88
2023-03-31T13:32:08.790Z,98483.38
2023-03-31T13:34:49.872Z,98490.91
2023-03-31T13:37:39.857Z,98483.94
2023-03-31T13:40:43.386Z,98487.47
2023-03-31T13:43:19.820Z,98477.81
2023-03-31T13:46:02.513Z,98487.25
2023-03-31T13:48:57.201Z,98497.00
2023-03-31T13:51:29.581Z,98495.03
2023-03-31T13:54:17.012Z,98494.72
2023-03-31T13:57:12.706Z,98496.00
2023-03-31T13:59:52.800Z,98494.38
2023-03-31T14:02:43.808Z,98492.09
2023-03-31T14:05:28.404Z,98491.28
2023-03-31T14:07:58.696Z,98490.56
2023-03-31T14:10:34.837Z,98490.66
2023-03-31T14:13:13.298Z,98485.38
2023-03-31T14:15:53.041Z,98489.34
2023-03-31T14:18:25.848Z,98494.50
2023-03-31T14:21:29.661Z,98487.22
2023-03-31T14:24:26.713Z,98480.72
2023-03-31T14:27:35.058Z,98475.19
2023-03-31T14:30:26.496Z,98481.41
2023-03-31T14:33:21.254Z,98473.56
2023-03-31T14:35:54.922Z,98473.75
2023-03-31T14:38:22.609Z,98474.66
2023-03-31T14:40:54.189Z,98471.19
2023-03-31T14:43:23.509Z,98473.13
2023-03-31T14:46:09.683Z,98477.78
2023-03-31T14:48:45.611Z,98469.13
2023-03-31T14:51:14.965Z,98471.72
2023-03-31T14:53:42.284Z,98473.72
2023-03-31T14:56:20.041Z,98470.59
2023-03-31T14:58:50.777Z,98468.81
2023-03-31T15:01:21.656Z,98472.31
2023-03-31T15:03:48.145Z,98479.66
2023-03-31T15:06:16.220Z,98467.47
2023-03-31T15:08:43.068Z,98462.75
2023-03-31T15:11:16.529Z,98462.44
2023-03-31T15:13:56.630Z,98465.97
2023-03-31T15:16:30.657Z,98467.25
2023-03-31T15:18:59.966Z,98460.16
2023-03-31T15:21:30.986Z,98460.31
2023-03-31T15:23:58.356Z,98459.66
2023-03-31T15:26:40.481Z,98452.91
2023-03-31T15:29:36.274Z,98451.41
2023-03-31T15:32:13.376Z,98456.25
2023-03-31T15:34:39.943Z,98453.13
2023-03-31T15:37:07.226Z,98451.56
2023-03-31T15:39:37.630Z,98444.31
2023-03-31T15:42:07.038Z,98440.81
2023-03-31T15:44:47.763Z,98449.16
2023-03-31T15:47:19.679Z,98436.94
2023-03-31T15:49:54.973Z,98431.03
2023-03-31T15:52:26.971Z,98432.19
2023-03-31T15:54:53.312Z,98440.59
2023-03-31T15:57:19.858Z,98443.00
2023-03-31T15:59:55.759Z,98434.56
2023-03-31T16:02:26.021Z,98426.91
2023-03-31T16:04:56.844Z,98427.59
2023-03-31T16:07:30.099Z,98424.69
2023-03-31T16:10:08.844Z,98428.34
2023-03-31T16:12:43.318Z,98429.94
2023-03-31T16:15:16.047Z,98428.00
2023-03-31T16:17:55.871Z,98419.59
2023-03-31T16:20:25.015Z,98423.19
2023-03-31T16:22:57.336Z,98422.25
2023-03-31T16:25:24.999Z,98419.44
2023-03-31T16:27:55.664Z,98426.03
2023-03-31T16:30:33.794Z,98427.53
2023-03-31T16:33:20.714Z,98433.09
2023-03-31T16:35:49.044Z,98431.63
2023-03-31T16:38:15.839Z,98428.56
2023-03-31T16:40:44.771Z,98416.19
2023-03-31T16:43:27.624Z,98420.59
2023-03-31T16:45:59.011Z,98423.72
2023-03-31T16:48:27.416Z,98422.69
2023-03-31T16:50:56.247Z,98415.06
2023-03-31T16:53:28.454Z,98423.84
2023-03-31T16:55:55.763Z,98408.06
2023-03-31T16:58:22.296Z,98414.03
2023-03-31T17:00:48.632Z,98421.72
2023-03-31T17:03:15.213Z,98425.34
2023-03-31T17:05:43.768Z,98424.28
2023-03-31T17:08:11.840Z,98421.13
2023-03-31T17:10:39.364Z,98428.72
2023-03-31T17:13:07.381Z,98437.25
2023-03-31T17:15:33.930Z,98447.28
2023-03-31T17:18:00.542Z,98449.19
2023-03-31T17:20:26.879Z,98444.31
2023-03-31T17:22:53.784Z,98451.06
2023-03-31T17:25:20.908Z,98452.72
2023-03-31T17:27:47.233Z,98465.56
2023-03-31T17:30:13.806Z,98445.66
2023-03-31T17:32:40.273Z,98437.97
2023-03-31T17:35:07.250Z,98438.56
2023-03-31T17:37:34.356Z,98437.78
2023-03-31T17:40:00.653Z,98442.09
2023-03-31T17:42:26.982Z,98441.53
2023-03-31T17:44:53.319Z,98439.09
2023-03-31T17:47:20.634Z,98434.47
2023-03-31T17:49:47.112Z,98436.38
2023-03-31T17:52:13.468Z,98441.81
2023-03-31T17:54:40.371Z,98432.97
2023-03-31T17:57:06.831Z,98445.06
2023-03-31T17:59:33.285Z,98438.31
2023-03-31T18:01:59.695Z,98438.41
2023-03-31T18:04:26.049Z,98447.09
2023-03-31T18:06:52.394Z,98447.22
2023-03-31T18:09:18.849Z,98447.56
2023-03-31T18:11:45.167Z,98450.38
2023-03-31T18:14:11.470Z,98449.47
2023-03-31T18:16:37.911Z,98453.19
2023-03-31T18:19:04.765Z,98449.25
2023-03-31T18:21:31.292Z,98447.78
2023-03-31T18:23:57.681Z,98444.84
2023-03-31T18:26:25.481Z,98442.16
2023-03-31T18:28:52.138Z,98443.28
2023-03-31T18:31:18.856Z,98452.97
2023-03-31T18:33:45.288Z,98446.66
2023-03-31T18:36:17.765Z,98446.00
2023-03-31T18:38:46.094Z,98450.38
2023-03-31T18:41:12.631Z,98457.25
2023-03-31T18:43:39.145Z,98455.09
2023-03-31T18:46:05.538Z,98460.88
2023-03-31T18:48:32.360Z,98454.91
2023-03-31T18:50:58.748Z,98454.00
2023-03-31T18:53:25.177Z,98465.41
2023-03-31T18:55:53.150Z,98463.50
2023-03-31T18:58:19.533Z,98469.47
2023-03-31T19:00:46.379Z,98463.28
2023-03-31T19:03:12.972Z,98459.53
2023-03-31T19:05:39.473Z,98463.16
2023-03-31T19:08:06.310Z,98463.94
2023-03-31T19:10:32.650Z,98473.75
2023-03-31T19:12:59.462Z,98460.44
2023-03-31T19:15:26.087Z,98462.91
2023-03-31T19:17:52.590Z,98457.94
2023-03-31T19:20:19.162Z,98460.88
2023-03-31T19:22:47.489Z,98470.59
2023-03-31T19:25:13.907Z,98469.91
2023-03-31T19:27:42.038Z,98468.47
2023-03-31T19:30:15.594Z,98470.81
2023-03-31T19:32:41.950Z,98475.25
2023-03-31T19:35:08.490Z,98473.53
2023-03-31T19:37:34.818Z,98471.41
2023-03-31T19:40:01.170Z,98474.91
2023-03-31T19:42:27.479Z,98466.97
2023-03-31T19:44:53.823Z,98465.63
2023-03-31T19:47:20.134Z,98464.72
2023-03-31T19:49:46.440Z,98458.19
2023-03-31T19:52:12.756Z,98461.44
2023-03-31T19:54:39.059Z,98458.41
2023-03-31T19:57:05.514Z,98454.13
2023-03-31T19:59:31.850Z,98451.84
2023-03-31T20:01:58.220Z,98453.09
2023-03-31T20:04:24.772Z,98454.91
2023-03-31T20:06:51.200Z,98454.78
2023-03-31T20:09:17.525Z,98445.53
2023-03-31T20:11:43.914Z,98441.94
2023-03-31T20:14:10.293Z,98447.44
2023-03-31T20:16:37.011Z,98454.34
2023-03-31T20:19:05.597Z,98436.25
2023-03-31T20:21:34.486Z,98452.50
2023-03-31T20:24:01.312Z,98443.06
2023-03-31T20:26:30.448Z,98450.28
2023-03-31T20:28:58.343Z,98451.88
2023-03-31T20:31:27.704Z,98447.13
2023-03-31T20:33:55.719Z,98451.19
2023-03-31T20:36:24.880Z,98445.88
2023-03-31T20:38:53.268Z,98450.06
2023-03-31T20:41:21.996Z,98451.97
2023-03-31T20:43:48.640Z,98453.31
2023-03-31T20:46:15.015Z,98461.56
2023-03-31T20:48:46.773Z,98452.66
2023-03-31T20:51:16.973Z,98454.66
2023-03-31T20:53:45.589Z,98452.75
2023-03-31T20:56:23.411Z,98450.47
2023-03-31T20:58:50.421Z,98448.03
2023-03-31T21:01:17.792Z,98446.22
2023-03-31T21:03:44.664Z,98447.00
2023-03-31T21:06:12.819Z,98445.41
2023-03-31T21:08:42.702Z,98446.66
2023-03-31T21:11:08.991Z,98440.00
2023-03-31T21:13:35.439Z,98451.19
2023-03-31T21:16:01.956Z,98443.50
2023-03-31T21:18:29.687Z,98440.09
2023-03-31T21:20:59.641Z,98443.03
2023-03-31T21:23:27.622Z,98445.97
2023-03-31T21:25:56.610Z,98439.22
2023-03-31T21:28:25.237Z,98435.16
2023-03-31T21:31:06.666Z,98445.72
2023-03-31T21:33:34.372Z,98444.94
2023-03-31T21:36:01.131Z,98446.09
2023-03-31T21:38:27.696Z,98441.47
2023-03-31T21:40:54.051Z,98444.13
2023-03-31T21:43:20.344Z,98449.78
2023-03-31T21:45:46.713Z,98448.44
2023-03-31T21:48:13.052Z,98445.16
2023-03-31T21:50:40.494Z,98443.47
2023-03-31T21:53:08.014Z,98452.28
2023-03-31T21:55:36.672Z,98444.59
2023-03-31T21:58:04.085Z,98448.53
2023-03-31T22:00:31.438Z,98445.25
2023-03-31T22:03:16.195Z,98445.81
2023-03-31T22:05:44.159Z,98446.03
2023-03-31T22:08:10.490Z,98445.03
2023-03-31T22:10:36.793Z,98450.91
2023-03-31T22:13:03.143Z,98446.72
2023-03-31T22:15:29.521Z,98452.25
2023-03-31T22:17:55.942Z,98449.44
2023-03-31T22:20:22.280Z,98449.09
2023-03-31T22:22:48.633Z,98449.78
2023-03-31T22:25:15.020Z,98458.81
2023-03-31T22:27:41.321Z,98455.19
2023-03-31T22:30:08.497Z,98450.66
2023-03-31T22:32:34.844Z,98452.25
2023-03-31T22:35:01.222Z,98451.44
2023-03-31T22:37:27.535Z,98458.47
2023-03-31T22:39:53.836Z,98458.13
2023-03-31T22:42:20.152Z,98458.69
2023-03-31T22:44:46.462Z,98455.97
2023-03-31T22:47:12.782Z,98460.03
2023-03-31T22:49:39.098Z,98457.97
2023-03-31T22:52:05.420Z,98461.34
2023-03-31T22:54:31.731Z,98465.22
2023-03-31T22:56:58.070Z,98469.81
2023-03-31T22:59:24.460Z,98465.63
2023-03-31T23:01:51.127Z,98466.63
2023-03-31T23:04:17.471Z,98466.19
2023-03-31T23:06:43.858Z,98464.34
2023-03-31T23:09:10.144Z,98472.25
2023-03-31T23:11:36.447Z,98466.63
2023-03-31T23:14:02.804Z,98466.19
2023-03-31T23:16:29.190Z,98461.88
2023-03-31T23:18:55.734Z,98465.13
2023-03-31T23:21:27.223Z,98468.38
2023-03-31T23:23:56.140Z,98469.28
2023-03-31T23:26:24.690Z,98462.78
2023-03-31T23:28:51.834Z,98472.97
2023-03-31T23:31:23.711Z,98473.84
2023-03-31T23:45:11.227Z,98465.16
2023-03-31T23:47:37.592Z,98461.97
2023-03-31T23:50:04.254Z,98464.81
2023-03-31T23:52:30.568Z,98461.75
2023-03-31T23:54:56.909Z,98466.84
2023-03-31T23:57:23.262Z,98452.59
2023-03-31T23:59:49.568Z,98462.81
